createdAt,value
2023-07-24T00:04:37.971Z,3.85
2023-07-24T00:09:39.607Z,4.10
2023-07-24T00:14:41.363Z,4.30
2023-07-24T00:19:43.232Z,4.28
2023-07-24T00:24:45.325Z,4.28
2023-07-24T00:29:47.026Z,4.57
2023-07-24T00:34:48.956Z,4.38
2023-07-24T00:39:50.866Z,5.03
2023-07-24T00:44:53.295Z,4.25
2023-07-24T00:49:56.416Z,4.45
2023-07-24T00:54:58.133Z,4.72
2023-07-24T01:00:00.821Z,4.50
2023-07-24T01:05:02.884Z,4.40
2023-07-24T01:10:04.986Z,4.93
2023-07-24T01:15:29.920Z,5.60
2023-07-24T01:20:36.095Z,4.82
2023-07-24T01:25:52.048Z,5.10
2023-07-24T01:30:54.503Z,5.82
2023-07-24T01:36:00.072Z,5.10
2023-07-24T01:41:02.482Z,5.45
2023-07-24T01:46:04.381Z,5.65
2023-07-24T01:51:06.514Z,5.53
2023-07-24T01:56:08.305Z,5.07
2023-07-24T02:01:10.067Z,5.15
2023-07-24T02:06:11.874Z,5.70
2023-07-24T02:11:13.604Z,5.35
2023-07-24T02:16:16.020Z,5.57
2023-07-24T02:21:17.894Z,5.30
2023-07-24T02:26:19.605Z,5.40
2023-07-24T02:31:21.568Z,5.68
2023-07-24T02:36:24.796Z,5.57
2023-07-24T02:41:26.647Z,5.47
2023-07-24T02:46:30.027Z,4.72
2023-07-24T02:51:33.232Z,5.07
2023-07-24T02:56:35.184Z,5.78
2023-07-24T03:01:37.737Z,4.45
2023-07-24T03:06:40.820Z,4.53
2023-07-24T03:11:42.754Z,5.05
2023-07-24T03:16:44.502Z,6.57
2023-07-24T03:21:46.255Z,5.35
2023-07-24T03:26:48.588Z,5.40
2023-07-24T03:31:50.243Z,5.03
2023-07-24T03:36:52.192Z,4.50
2023-07-24T03:41:54.386Z,6.25
2023-07-24T03:46:56.105Z,6.80
2023-07-24T03:51:57.918Z,5.15
2023-07-24T03:56:59.632Z,5.93
2023-07-24T04:02:01.339Z,5.00
2023-07-24T04:07:03.606Z,6.20
2023-07-24T04:12:06.069Z,6.10
2023-07-24T04:17:07.893Z,5.60
2023-07-24T04:22:10.140Z,4.93
2023-07-24T04:27:11.873Z,4.53
2023-07-24T04:32:13.629Z,4.72
2023-07-24T04:37:15.314Z,5.15
2023-07-24T04:42:17.632Z,5.32
2023-07-24T04:47:19.448Z,5.28
2023-07-24T04:52:21.223Z,5.35
2023-07-24T04:57:23.198Z,5.20
2023-07-24T05:02:24.957Z,5.00
2023-07-24T05:07:26.557Z,4.95
2023-07-24T05:12:28.804Z,5.55
2023-07-24T05:17:30.667Z,4.50
2023-07-24T05:22:32.425Z,5.18
2023-07-24T05:27:34.296Z,4.28
2023-07-24T05:32:36.233Z,5.70
2023-07-24T05:37:38.158Z,4.88
2023-07-24T05:42:42.788Z,5.35
2023-07-24T05:47:44.692Z,6.38
2023-07-24T05:52:46.741Z,4.97
2023-07-24T05:57:48.676Z,5.22
2023-07-24T06:02:50.586Z,5.65
2023-07-24T06:07:52.420Z,5.05
2023-07-24T06:12:54.063Z,5.15
2023-07-24T06:17:55.831Z,5.97
2023-07-24T06:22:57.657Z,5.35
2023-07-24T06:27:59.726Z,4.97
2023-07-24T06:33:01.512Z,4.70
2023-07-24T06:38:03.255Z,5.30
2023-07-24T06:43:05.036Z,5.30
2023-07-24T06:48:06.838Z,5.55
2023-07-24T06:53:08.651Z,5.95
2023-07-24T06:58:10.632Z,5.75
2023-07-24T07:03:12.568Z,6.43
2023-07-24T07:08:14.390Z,6.38
2023-07-24T07:13:16.034Z,6.25
2023-07-24T07:18:18.588Z,6.18
2023-07-24T07:23:21.351Z,6.03
2023-07-24T07:28:23.177Z,6.72
2023-07-24T07:33:25.862Z,6.55
2023-07-24T07:38:27.678Z,6.10
2023-07-24T07:43:29.448Z,6.05
2023-07-24T07:48:31.323Z,6.28
2023-07-24T07:53:33.040Z,6.47
2023-07-24T08:03:36.847Z,4.75
2023-07-24T08:08:38.963Z,4.95
2023-07-24T08:13:40.658Z,4.82
2023-07-24T08:18:42.352Z,5.03
2023-07-24T08:23:44.258Z,4.65
2023-07-24T08:28:46.172Z,4.95
2023-07-24T08:33:47.959Z,4.90
2023-07-24T08:38:49.705Z,5.47
2023-07-24T08:43:53.293Z,4.53
2023-07-24T08:48:55.904Z,5.30
2023-07-24T08:53:58.072Z,5.22
2023-07-24T08:58:59.922Z,5.05
2023-07-24T09:04:01.920Z,4.75
2023-07-24T09:09:04.218Z,5.10
2023-07-24T09:19:26.761Z,5.22
2023-07-24T09:24:28.814Z,4.28
2023-07-24T09:29:34.783Z,4.93
2023-07-24T09:34:43.504Z,4.63
2023-07-24T09:39:47.989Z,4.88
2023-07-24T09:44:49.780Z,4.70
2023-07-24T09:49:53.847Z,4.68
2023-07-24T09:55:12.709Z,5.25
2023-07-24T10:00:15.467Z,4.78
2023-07-24T10:05:18.813Z,5.03
2023-07-24T10:10:22.205Z,4.47
2023-07-24T10:15:24.152Z,4.72
2023-07-24T10:20:34.599Z,5.35
2023-07-24T10:25:41.733Z,5.10
2023-07-24T10:30:44.270Z,5.30
2023-07-24T10:35:52.369Z,5.78
2023-07-24T10:46:04.242Z,4.60
2023-07-24T10:51:10.273Z,5.35
2023-07-24T10:56:12.521Z,5.43
2023-07-24T11:01:15.896Z,5.03
2023-07-24T11:06:19.762Z,4.63
2023-07-24T11:11:21.687Z,4.55
2023-07-24T11:16:23.576Z,4.78
2023-07-24T11:21:25.608Z,5.95
2023-07-24T11:26:28.141Z,5.10
2023-07-24T11:31:38.508Z,4.68
2023-07-24T11:36:40.664Z,5.35
2023-07-24T11:41:42.657Z,5.22
2023-07-24T11:46:44.596Z,5.82
2023-07-24T11:51:46.397Z,5.28
2023-07-24T11:56:48.124Z,5.07
2023-07-24T12:01:50.290Z,5.47
2023-07-24T12:06:52.868Z,5.60
2023-07-24T12:12:00.053Z,5.25
2023-07-24T12:17:03.184Z,5.45
2023-07-24T12:22:05.390Z,5.43
2023-07-24T12:27:07.168Z,6.00
2023-07-24T12:32:09.138Z,5.85
2023-07-24T12:37:11.150Z,5.60
2023-07-24T12:42:13.267Z,6.13
2023-07-24T12:47:15.259Z,5.38
2023-07-24T12:52:17.556Z,5.20
2023-07-24T12:57:19.301Z,5.65
2023-07-24T13:02:21.116Z,5.57
2023-07-24T13:07:22.941Z,7.15
2023-07-24T13:12:24.843Z,6.40
2023-07-24T13:17:27.673Z,6.63
2023-07-24T13:22:29.442Z,6.57
2023-07-24T13:27:31.292Z,7.30
2023-07-24T13:32:33.287Z,6.75
2023-07-24T13:37:35.113Z,6.20
2023-07-24T13:42:36.870Z,7.20
2023-07-24T13:47:38.614Z,6.60
2023-07-24T13:52:40.478Z,7.03
2023-07-24T13:57:42.660Z,6.40
2023-07-24T14:02:44.447Z,6.55
2023-07-24T14:07:46.422Z,6.50
2023-07-24T14:12:48.286Z,6.60
2023-07-24T14:17:49.967Z,6.95
2023-07-24T14:22:51.809Z,6.53
2023-07-24T14:27:53.642Z,6.70
2023-07-24T14:32:55.329Z,6.57
2023-07-24T14:37:57.222Z,7.07
2023-07-24T14:42:59.025Z,8.20
2023-07-24T14:48:00.737Z,7.75
2023-07-24T14:53:02.454Z,6.32
2023-07-24T14:58:04.366Z,7.68
2023-07-24T15:03:06.176Z,7.57
2023-07-24T15:08:08.040Z,7.07
2023-07-24T15:13:11.281Z,8.30
2023-07-24T15:18:13.141Z,6.95
2023-07-24T15:23:15.045Z,7.57
2023-07-24T15:28:17.411Z,7.75
2023-07-24T15:33:19.371Z,7.30
2023-07-24T15:38:21.032Z,7.30
2023-07-24T15:43:25.273Z,7.80
2023-07-24T15:48:27.116Z,7.32
2023-07-24T15:53:29.943Z,6.78
2023-07-24T15:58:31.718Z,6.93
2023-07-24T16:03:33.589Z,6.30
2023-07-24T16:08:35.408Z,7.18
2023-07-24T16:13:40.180Z,6.50
2023-07-24T16:18:42.247Z,6.38
2023-07-24T16:23:44.088Z,6.05
2023-07-24T16:28:45.907Z,6.50
2023-07-24T16:33:50.011Z,6.95
2023-07-24T16:38:52.184Z,6.13
2023-07-24T16:43:54.003Z,6.13
2023-07-24T16:48:55.809Z,6.05
2023-07-24T16:53:57.734Z,6.20
2023-07-24T16:58:59.445Z,6.30
2023-07-24T17:04:01.203Z,6.05
2023-07-24T17:09:03.395Z,6.53
2023-07-24T17:14:05.128Z,6.68
2023-07-24T17:19:06.805Z,6.68
2023-07-24T17:24:08.563Z,6.57
2023-07-24T17:29:10.562Z,6.47
2023-07-24T17:34:12.172Z,6.03
2023-07-24T17:39:13.922Z,5.93
2023-07-24T17:44:15.620Z,5.28
2023-07-24T17:49:17.437Z,5.68
2023-07-24T17:54:19.092Z,6.38
2023-07-24T17:59:20.871Z,6.10
2023-07-24T18:04:22.938Z,7.22
2023-07-24T18:09:24.856Z,4.32
2023-07-24T18:14:26.787Z,3.75
2023-07-24T18:19:29.428Z,1.98
2023-07-24T18:24:31.280Z,2.65
2023-07-24T18:29:33.721Z,1.73
2023-07-24T18:34:35.526Z,1.92
2023-07-24T18:39:37.227Z,1.90
2023-07-24T18:44:38.951Z,1.52
2023-07-24T18:49:41.072Z,1.52
2023-07-24T18:54:42.999Z,1.20
2023-07-24T18:59:44.827Z,1.35
2023-07-24T19:04:46.739Z,1.50
2023-07-24T19:09:49.278Z,1.80
2023-07-24T19:14:51.179Z,3.05
2023-07-24T19:19:52.909Z,2.72
2023-07-24T19:24:55.393Z,2.92
2023-07-24T19:30:02.748Z,3.10
2023-07-24T19:35:05.106Z,2.70
2023-07-24T19:40:07.632Z,3.03
2023-07-24T19:45:09.757Z,3.45
2023-07-24T19:50:11.456Z,3.30
2023-07-24T19:55:13.546Z,3.80
2023-07-24T20:00:15.705Z,4.25
2023-07-24T20:05:17.569Z,3.72
2023-07-24T20:10:19.255Z,4.07
2023-07-24T20:15:21.110Z,3.88
2023-07-24T20:35:48.153Z,3.63
2023-07-24T20:40:50.097Z,3.30
2023-07-24T20:45:52.146Z,3.40
2023-07-24T20:50:54.286Z,3.33
2023-07-24T20:55:55.993Z,3.30
2023-07-24T21:00:57.680Z,2.97
2023-07-24T21:05:59.471Z,3.30
2023-07-24T21:11:01.241Z,4.13
2023-07-24T21:16:03.008Z,2.50
2023-07-24T21:21:07.160Z,2.65
2023-07-24T21:26:10.439Z,2.63
2023-07-24T21:31:13.619Z,2.67
2023-07-24T21:36:15.392Z,2.63
2023-07-24T21:41:17.219Z,3.05
2023-07-24T21:46:19.021Z,2.60
2023-07-24T21:51:20.935Z,2.50
2023-07-24T21:56:22.849Z,3.00
2023-07-24T22:01:24.651Z,2.88
2023-07-24T22:06:26.887Z,2.85
2023-07-24T22:11:29.647Z,3.08
2023-07-24T22:16:31.652Z,3.05
2023-07-24T22:21:33.766Z,2.67
2023-07-24T22:26:35.739Z,3.30
2023-07-24T22:31:37.483Z,2.90
2023-07-24T22:36:40.998Z,3.17
2023-07-24T22:41:44.848Z,2.45
2023-07-24T22:46:46.682Z,2.53
2023-07-24T22:51:48.545Z,2.90
2023-07-24T22:56:50.293Z,2.97
2023-07-24T23:01:54.229Z,3.63
2023-07-24T23:06:56.502Z,3.00
2023-07-24T23:11:58.188Z,4.03
2023-07-24T23:16:59.899Z,2.80
2023-07-24T23:22:01.607Z,2.88
2023-07-24T23:27:03.352Z,2.92
2023-07-24T23:32:05.429Z,2.50
2023-07-24T23:37:07.193Z,3.30
2023-07-24T23:42:08.856Z,2.63
2023-07-24T23:47:10.774Z,3.20
2023-07-24T23:52:12.677Z,3.08
2023-07-24T23:57:14.614Z,3.15
